Buena Vista, Wisconsin
Current Conditions -  °F | °C
As of 1:55 PM on Friday 19 Dec 2014 (Local Time) from KSTE Reporting Station
Broken Clouds Broken Clouds  
Wind Chill: -8°   Ceiling: 2400
Heat Index: -3°   Visibility: 10mi
Dew Point: -9°   Wind: 7mph
Humidity: 69%   Direction: 200°SSW
Pressure: 30.25"   Gusts: NA
Location:  44.4117°N, 89.5378°W
Report Text: KSTE 191955Z AUTO 20006KT 10SM BKN024 M03/M08 A3025 RMK AO2 T10351085
Loading
Personal Weather Stations






























Interactive Weather Map New forecast layout! Learn more

10-Day Weather Forecast

Advertisements
Track Severe Weather on mobile